Riparius, New York
Current Conditions -  °F | °C
As of 7:53 AM on Wednesday 22 Oct 2014 (Local Time) from KGFL Reporting Station
Overcast Overcast  
Wind Chill: 46°   Ceiling: 2500
Heat Index: 49°   Visibility: 10mi
Dew Point: 44°   Wind: 7mph
Humidity: 83%   Direction: 360°N
Pressure: 30.1"   Gusts: NA
Location:  43.66°N, 73.9°W
Report Text: KGFL 221153Z AUTO 36006KT 10SM OVC025 09/07 A3010 RMK AO2 SLP196 70007 T00940067 10100 20094 51016
Loading
Personal Weather Stations






























Interactive Weather Map New forecast layout! Learn more

10-Day Weather Forecast

Advertisements
Track Severe Weather on mobile